| ตารางข้อมูล | TH20402 | TH4529A | TH4529D | TH814 | ค้นข้อมูล1 | ค้นข้อมูล2 | ค่าสูงสุด-ต่ำสุด |  

Select Sensor -->| 20402 | 4529A | 4529D | 814 | 824 | 834 | 844 | หน้าจอย่อ | 4529 |
Data of room  834

IDRoomDate  Temp  Humidity
 71704  834  2021-11-26 21:23:56  27.0  64.4 
 71699  834  2021-11-26 21:13:53  27.0  65.8 
 71697  834  2021-11-26 21:03:51  26.9  67.7 
 71692  834  2021-11-26 20:53:48  27.2  67.5 
 71690  834  2021-11-26 20:43:46  27.1  70.0 
 71685  834  2021-11-26 20:33:44  27.2  72.0 
 71683  834  2021-11-26 20:23:41  28.6  73.1 
 71678  834  2021-11-26 20:13:39  28.1  74.5 
 71676  834  2021-11-26 20:03:37  27.9  74.3 
 71671  834  2021-11-26 19:53:34  28.1  73.2 
 71669  834  2021-11-26 19:43:32  27.9  72.8 
 71664  834  2021-11-26 19:33:30  27.7  71.1 
 71662  834  2021-11-26 19:23:27  27.6  67.7 
 71657  834  2021-11-26 19:13:25  27.2  67.2 
 71655  834  2021-11-26 19:03:22  27.3  69.1 
 71650  834  2021-11-26 18:53:20  27.4  69.7 
 71648  834  2021-11-26 18:43:18  27.4  71.5 
 71643  834  2021-11-26 18:33:15  27.5  73.8 
 71641  834  2021-11-26 18:23:13  28.5  75.8 
 71636  834  2021-11-26 18:13:11  28.2  78.0 
 71634  834  2021-11-26 18:03:08  30.0  75.5 
 71629  834  2021-11-26 17:53:06  30.0  75.0 
 71627  834  2021-11-26 17:43:04  30.1  74.9 
 71622  834  2021-11-26 17:33:01  30.3  74.4 
 71620  834  2021-11-26 17:22:59  30.3  74.8 
 71615  834  2021-11-26 17:12:56  30.0  75.5 
 71613  834  2021-11-26 17:02:54  29.6  77.1 
 71608  834  2021-11-26 16:52:52  30.2  75.3 
 71606  834  2021-11-26 16:42:49  29.8  75.8 
 71601  834  2021-11-26 16:32:47  30.0  74.8 
 71599  834  2021-11-26 16:22:45  30.1  74.6 
 71594  834  2021-11-26 16:12:42  29.9  74.1 
 71592  834  2021-11-26 16:02:40  29.7  74.2 
 71587  834  2021-11-26 15:52:38  29.6  74.3 
 71585  834  2021-11-26 15:42:35  29.6  74.1 
 71580  834  2021-11-26 15:32:33  29.7  73.8 
 71578  834  2021-11-26 15:22:31  29.9  74.0 
 71573  834  2021-11-26 15:12:28  30.0  73.6 
 71571  834  2021-11-26 15:02:26  30.1  72.1 
 71566  834  2021-11-26 14:52:23  30.6  69.4 
 71564  834  2021-11-26 14:42:21  32.5  63.0 
 71559  834  2021-11-26 14:32:19  32.5  63.2 
 71557  834  2021-11-26 14:22:16  32.5  63.1 
 71554  834  2021-11-26 14:12:14  32.5  63.3 
 71552  834  2021-11-26 14:02:12  32.6  63.4 
 71549  834  2021-11-26 13:52:09  32.3  64.6 
 71547  834  2021-11-26 13:42:07  32.3  64.7 
 71544  834  2021-11-26 13:32:05  31.0  69.3 
 71542  834  2021-11-26 13:21:59  30.3  70.6 
 71537  834  2021-11-26 13:11:57  30.5  69.6 
 71535  834  2021-11-26 13:01:55  30.7  68.6 
 71530  834  2021-11-26 12:51:52  31.9  64.6 
 71528  834  2021-11-26 12:41:50  32.3  63.0 
 71523  834  2021-11-26 12:31:48  31.9  63.1 
 71521  834  2021-11-26 12:21:45  32.0  62.6 
 71516  834  2021-11-26 12:11:43  31.9  62.8 
 71514  834  2021-11-26 12:01:41  31.9  62.7 
 71509  834  2021-11-26 11:51:38  31.9  62.5 
 71507  834  2021-11-26 11:41:36  31.9  62.7 
 71502  834  2021-11-26 11:31:33  31.9  62.5 
 71500  834  2021-11-26 11:21:31  31.9  62.4 
 71495  834  2021-11-26 11:11:29  32.1  62.6 
 71493  834  2021-11-26 11:01:26  31.8  62.3 
 71488  834  2021-11-26 10:51:24  31.9  62.2 
 71486  834  2021-11-26 10:41:22  31.8  62.5 
 71481  834  2021-11-26 10:31:19  31.7  62.6 
 71479  834  2021-11-26 10:21:17  31.8  62.6 
 71474  834  2021-11-26 10:11:15  31.7  62.7 
 71472  834  2021-11-26 10:01:12  31.8  62.5 
 71467  834  2021-11-26 09:51:10  31.7  62.5 
 71465  834  2021-11-26 09:41:08  31.7  62.4 
 71460  834  2021-11-26 09:31:05  31.7  62.5 

Data every 20 minute.


Data of room  834


Data every 20 minute.

  Show Graph